createdAt,value
2017-06-17T00:01:00.424Z,72.20
2017-06-17T00:03:27.957Z,72.40
2017-06-17T00:05:55.476Z,72.20
2017-06-17T00:08:23.020Z,72.10
2017-06-17T00:10:50.769Z,72.30
2017-06-17T00:13:18.316Z,72.70
2017-06-17T00:15:45.808Z,73.10
2017-06-17T00:18:13.415Z,73.40
2017-06-17T00:20:40.969Z,73.50
2017-06-17T00:23:08.461Z,73.70
2017-06-17T00:25:36.939Z,73.50
2017-06-17T00:28:04.534Z,73.40
2017-06-17T00:30:32.028Z,73.70
2017-06-17T00:32:59.588Z,73.70
2017-06-17T00:35:27.073Z,73.80
2017-06-17T00:37:54.588Z,73.80
2017-06-17T00:40:22.109Z,73.40
2017-06-17T00:42:49.656Z,73.40
2017-06-17T00:45:17.198Z,73.00
2017-06-17T00:47:44.680Z,72.60
2017-06-17T00:50:12.168Z,72.90
2017-06-17T00:52:40.549Z,73.00
2017-06-17T00:55:08.096Z,72.90
2017-06-17T00:57:35.588Z,73.60
2017-06-17T01:00:03.141Z,73.50
2017-06-17T01:02:30.724Z,73.50
2017-06-17T01:04:58.972Z,72.80
2017-06-17T01:07:26.544Z,72.80
2017-06-17T01:09:54.024Z,72.90
2017-06-17T01:12:21.533Z,72.80
2017-06-17T01:14:49.284Z,72.70
2017-06-17T01:17:16.769Z,73.20
2017-06-17T01:19:44.268Z,72.80
2017-06-17T01:22:11.817Z,72.50
2017-06-17T01:24:39.353Z,72.90
2017-06-17T01:27:06.905Z,72.70
2017-06-17T01:29:34.448Z,72.50
2017-06-17T01:32:01.984Z,72.60
2017-06-17T01:34:29.471Z,72.40
2017-06-17T01:36:57.068Z,72.70
2017-06-17T01:39:24.613Z,72.60
2017-06-17T01:41:52.109Z,73.00
2017-06-17T01:44:19.804Z,73.00
2017-06-17T01:46:47.284Z,73.30
2017-06-17T01:49:14.776Z,73.10
2017-06-17T01:51:43.061Z,73.30
2017-06-17T01:54:10.545Z,73.10
2017-06-17T01:56:38.028Z,73.10
2017-06-17T01:59:05.558Z,73.50
2017-06-17T02:01:33.800Z,72.80
2017-06-17T02:04:01.376Z,73.60
2017-06-17T02:06:28.900Z,72.50
2017-06-17T02:08:56.392Z,72.30
2017-06-17T02:11:23.876Z,72.30
2017-06-17T02:13:51.386Z,72.70
2017-06-17T02:16:18.880Z,72.80
2017-06-17T02:18:46.364Z,72.70
2017-06-17T02:21:32.746Z,72.60
2017-06-17T02:24:00.233Z,72.70
2017-06-17T02:26:27.936Z,72.60
2017-06-17T02:28:55.420Z,72.30
2017-06-17T02:31:22.895Z,72.30
2017-06-17T02:33:51.279Z,72.50
2017-06-17T02:36:18.765Z,72.50
2017-06-17T02:38:46.252Z,72.50
2017-06-17T02:41:13.754Z,73.00
2017-06-17T02:43:41.237Z,72.80
2017-06-17T02:46:08.797Z,72.70
2017-06-17T02:48:36.336Z,72.90
2017-06-17T02:51:03.886Z,72.50
2017-06-17T02:53:31.424Z,72.70
2017-06-17T02:55:58.963Z,72.50
2017-06-17T02:58:26.513Z,72.50
2017-06-17T03:00:54.256Z,72.60
2017-06-17T03:03:21.804Z,72.90
2017-06-17T03:05:49.284Z,72.80
2017-06-17T03:08:17.586Z,72.70
2017-06-17T03:10:45.072Z,72.70
2017-06-17T03:13:12.655Z,72.70
2017-06-17T03:15:40.196Z,73.00
2017-06-17T03:18:07.685Z,73.00
2017-06-17T03:20:35.173Z,72.90
2017-06-17T03:23:02.848Z,72.80
2017-06-17T03:25:30.340Z,72.60
2017-06-17T03:27:58.628Z,72.60
2017-06-17T03:30:26.173Z,72.50
2017-06-17T03:32:53.726Z,72.20
2017-06-17T03:35:21.257Z,71.80
2017-06-17T03:37:48.739Z,72.00
2017-06-17T03:40:16.244Z,72.00
2017-06-17T03:42:43.764Z,71.40
2017-06-17T03:45:12.024Z,72.10
2017-06-17T03:47:40.308Z,70.50
2017-06-17T03:50:07.852Z,70.40
2017-06-17T03:52:35.402Z,70.40
2017-06-17T03:55:02.935Z,70.50
2017-06-17T03:57:30.480Z,70.30
2017-06-17T03:59:58.024Z,70.00
2017-06-17T04:02:25.504Z,70.40
2017-06-17T04:04:53.116Z,70.00
2017-06-17T04:07:21.426Z,70.20
2017-06-17T04:09:48.919Z,70.10
2017-06-17T04:12:17.201Z,70.50
2017-06-17T04:14:44.694Z,70.40
2017-06-17T04:17:12.185Z,70.30
2017-06-17T04:19:39.934Z,70.70
2017-06-17T04:22:07.428Z,70.10
2017-06-17T04:24:34.921Z,70.10
2017-06-17T04:27:02.465Z,70.50
2017-06-17T04:29:30.009Z,70.60
2017-06-17T04:31:57.493Z,70.80
2017-06-17T04:34:25.197Z,70.50
2017-06-17T04:36:52.745Z,70.20
2017-06-17T04:39:20.248Z,70.20
2017-06-17T04:41:47.828Z,70.20
2017-06-17T04:44:15.312Z,69.20
2017-06-17T04:46:42.912Z,69.80
2017-06-17T04:49:10.454Z,69.50
2017-06-17T04:51:38.702Z,69.50
2017-06-17T04:54:07.076Z,69.40
2017-06-17T04:56:34.619Z,69.40
2017-06-17T04:59:02.108Z,69.60
2017-06-17T05:01:29.636Z,70.00
2017-06-17T05:03:57.120Z,69.90
2017-06-17T05:06:25.375Z,70.70
2017-06-17T05:08:52.885Z,70.70
2017-06-17T05:11:20.378Z,70.70
2017-06-17T05:13:48.664Z,70.30
2017-06-17T05:16:16.404Z,70.20
2017-06-17T05:18:43.948Z,70.40
2017-06-17T05:21:11.496Z,70.30
2017-06-17T05:23:38.996Z,70.50
2017-06-17T05:26:06.580Z,70.20
2017-06-17T05:28:34.120Z,69.90
2017-06-17T05:31:01.608Z,69.70
2017-06-17T05:33:29.127Z,69.10
2017-06-17T05:35:56.612Z,70.00
2017-06-17T05:38:24.192Z,69.90
2017-06-17T05:40:51.692Z,70.00
2017-06-17T05:43:19.213Z,70.20
2017-06-17T05:45:46.729Z,70.00
2017-06-17T05:48:14.254Z,70.40
2017-06-17T05:50:41.771Z,70.50
2017-06-17T05:53:09.256Z,70.00
2017-06-17T05:55:36.788Z,70.30
2017-06-17T05:58:04.346Z,70.20
2017-06-17T06:00:31.843Z,70.00
2017-06-17T06:02:59.420Z,70.20
2017-06-17T06:05:26.921Z,69.90
2017-06-17T06:07:54.509Z,69.40
2017-06-17T06:10:22.244Z,69.40
2017-06-17T06:12:49.808Z,70.10
2017-06-17T06:15:17.363Z,69.80
2017-06-17T06:17:44.852Z,69.60
2017-06-17T06:20:12.348Z,69.50
2017-06-17T06:22:39.905Z,69.30
2017-06-17T06:25:07.420Z,69.70
2017-06-17T06:27:34.908Z,69.80
2017-06-17T06:30:02.505Z,68.90
2017-06-17T06:32:30.009Z,69.00
2017-06-17T06:34:58.336Z,68.90
2017-06-17T06:37:25.852Z,69.30
2017-06-17T06:39:53.396Z,69.90
2017-06-17T06:42:21.036Z,70.00
2017-06-17T06:44:48.531Z,69.90
2017-06-17T06:47:16.068Z,70.00
2017-06-17T06:49:43.669Z,70.00
2017-06-17T06:52:11.913Z,70.40
2017-06-17T06:54:39.459Z,70.80
2017-06-17T06:57:07.724Z,70.10
2017-06-17T06:59:35.200Z,70.10
2017-06-17T07:02:02.723Z,70.20
2017-06-17T07:04:30.208Z,70.50
2017-06-17T07:06:57.808Z,70.60
2017-06-17T07:09:25.352Z,70.80
2017-06-17T07:11:52.902Z,71.10
2017-06-17T07:14:20.436Z,71.20
2017-06-17T07:16:47.933Z,70.90
2017-06-17T07:19:15.584Z,70.70
2017-06-17T07:21:43.177Z,71.40
2017-06-17T07:24:11.460Z,70.00
2017-06-17T07:26:38.976Z,69.90
2017-06-17T07:29:06.472Z,69.20
2017-06-17T07:31:34.065Z,69.80
2017-06-17T07:34:01.605Z,69.80
2017-06-17T07:36:29.156Z,70.00
2017-06-17T07:38:56.692Z,70.50
2017-06-17T07:41:25.194Z,70.10
2017-06-17T07:43:52.737Z,69.60
2017-06-17T07:46:20.306Z,69.20
2017-06-17T07:48:47.907Z,69.70
2017-06-17T07:51:15.635Z,69.50
2017-06-17T07:53:43.284Z,68.60
2017-06-17T07:56:11.262Z,68.20
2017-06-17T07:58:38.880Z,68.00
2017-06-17T08:01:06.984Z,68.30
2017-06-17T08:03:34.484Z,68.00
2017-06-17T08:06:02.253Z,68.30
2017-06-17T08:08:29.741Z,66.80
2017-06-17T08:10:58.377Z,66.20
2017-06-17T08:13:27.405Z,65.70
2017-06-17T08:15:54.961Z,64.90
2017-06-17T08:18:22.501Z,64.70
2017-06-17T08:20:50.053Z,64.00
2017-06-17T08:23:17.556Z,65.10
2017-06-17T08:25:45.057Z,65.00
2017-06-17T08:28:12.576Z,65.60
2017-06-17T08:30:40.128Z,65.20
2017-06-17T08:33:07.612Z,63.10
2017-06-17T08:35:35.108Z,64.00
2017-06-17T08:38:02.633Z,65.20
2017-06-17T08:40:30.903Z,64.40
2017-06-17T08:42:58.446Z,64.40
2017-06-17T08:45:26.200Z,63.70
2017-06-17T08:47:53.746Z,63.90
2017-06-17T08:50:21.281Z,63.90
2017-06-17T08:52:48.835Z,63.60
2017-06-17T08:55:16.392Z,62.30
2017-06-17T08:57:43.952Z,62.90
2017-06-17T09:00:11.476Z,63.50
2017-06-17T09:02:39.003Z,62.90
2017-06-17T09:05:06.548Z,62.10
2017-06-17T09:07:34.088Z,61.10
2017-06-17T09:10:01.572Z,61.70
2017-06-17T09:12:29.080Z,61.60
2017-06-17T09:14:56.621Z,61.50
2017-06-17T09:17:24.110Z,61.60
2017-06-17T09:19:51.598Z,61.80
2017-06-17T09:22:19.100Z,62.30
2017-06-17T09:24:46.688Z,61.60
2017-06-17T09:27:14.217Z,62.60
2017-06-17T09:29:42.501Z,62.40
2017-06-17T09:32:10.040Z,62.40
2017-06-17T09:34:37.580Z,62.80
2017-06-17T09:37:05.253Z,60.40
2017-06-17T09:39:32.772Z,61.20
2017-06-17T09:42:00.521Z,62.10
2017-06-17T09:44:28.064Z,62.30
2017-06-17T09:46:55.565Z,61.70
2017-06-17T09:49:23.152Z,60.80
2017-06-17T09:51:50.712Z,60.40
2017-06-17T09:54:18.240Z,59.90
2017-06-17T09:56:45.785Z,59.70
2017-06-17T09:59:13.328Z,59.10
2017-06-17T10:01:40.868Z,59.50
2017-06-17T10:04:08.353Z,59.80
2017-06-17T10:06:35.836Z,60.00
2017-06-17T10:09:04.096Z,59.40
2017-06-17T10:11:32.393Z,59.50
2017-06-17T10:14:00.016Z,59.50
2017-06-17T10:16:27.556Z,59.70
2017-06-17T10:18:55.109Z,60.00
2017-06-17T10:21:23.631Z,62.20
2017-06-17T10:23:51.431Z,62.30
2017-06-17T10:26:18.964Z,63.10
2017-06-17T10:28:46.604Z,61.30
2017-06-17T10:31:14.097Z,61.00
2017-06-17T10:33:41.693Z,60.80
2017-06-17T10:36:09.288Z,62.40
2017-06-17T10:38:36.773Z,61.80
2017-06-17T10:41:05.042Z,61.50
2017-06-17T10:43:32.537Z,61.40
2017-06-17T10:46:00.233Z,62.20
2017-06-17T10:48:28.864Z,61.40
2017-06-17T10:50:56.474Z,60.90
2017-06-17T10:53:24.092Z,60.80
2017-06-17T10:55:51.590Z,61.00
2017-06-17T10:58:19.080Z,61.80
2017-06-17T11:00:46.620Z,61.80
2017-06-17T11:03:14.291Z,60.90
2017-06-17T11:05:41.808Z,61.10
2017-06-17T11:08:09.318Z,61.30
2017-06-17T11:10:37.575Z,60.30
2017-06-17T11:13:05.088Z,59.50
2017-06-17T11:15:32.605Z,59.20
2017-06-17T11:18:00.094Z,59.50
2017-06-17T11:20:27.684Z,58.70
2017-06-17T11:22:55.229Z,59.30
2017-06-17T11:25:22.777Z,60.30
2017-06-17T11:27:50.356Z,60.70
2017-06-17T11:30:17.961Z,59.70
2017-06-17T11:32:45.477Z,59.80
2017-06-17T11:35:13.765Z,60.60
2017-06-17T11:37:41.308Z,60.60
2017-06-17T11:40:08.858Z,60.50
2017-06-17T11:42:36.396Z,60.60
2017-06-17T11:45:03.892Z,60.30
2017-06-17T11:47:31.481Z,59.00
2017-06-17T11:49:59.758Z,57.50
2017-06-17T11:52:27.280Z,57.50
2017-06-17T11:54:54.828Z,57.00
2017-06-17T11:57:22.321Z,55.50
2017-06-17T11:59:49.942Z,55.60
2017-06-17T12:02:17.462Z,54.40
2017-06-17T12:04:45.208Z,54.90
2017-06-17T12:07:12.691Z,56.60
2017-06-17T12:09:40.193Z,57.00
2017-06-17T12:12:07.737Z,57.00
2017-06-17T12:14:35.283Z,56.90
2017-06-17T12:17:02.769Z,57.20
2017-06-17T12:19:30.269Z,56.90
2017-06-17T12:21:57.808Z,58.20
2017-06-17T12:24:25.444Z,58.60
2017-06-17T12:26:52.997Z,59.20
2017-06-17T12:29:20.540Z,58.60
2017-06-17T12:31:48.089Z,58.70
2017-06-17T12:34:15.576Z,58.00
2017-06-17T12:36:43.166Z,56.70
2017-06-17T12:39:10.712Z,55.70
2017-06-17T12:41:38.996Z,53.50
2017-06-17T12:44:06.516Z,53.40
2017-06-17T12:46:34.060Z,51.70
2017-06-17T12:49:01.550Z,48.10
2017-06-17T12:51:29.125Z,43.10
2017-06-17T12:53:57.412Z,41.80
2017-06-17T12:56:24.896Z,41.80
2017-06-17T12:58:52.420Z,41.60
2017-06-17T13:01:19.946Z,42.80
2017-06-17T13:03:47.453Z,43.30
2017-06-17T13:06:15.041Z,42.20
2017-06-17T13:08:42.524Z,42.30
2017-06-17T13:11:10.004Z,42.90
2017-06-17T13:13:37.492Z,43.80
2017-06-17T13:16:04.977Z,44.50
2017-06-17T13:18:33.382Z,47.50
2017-06-17T13:21:01.657Z,48.60
2017-06-17T13:23:29.936Z,50.30
2017-06-17T13:25:58.114Z,50.30
2017-06-17T13:28:25.644Z,51.60
2017-06-17T13:30:53.921Z,51.10
2017-06-17T13:33:21.428Z,51.10
2017-06-17T13:35:49.698Z,50.30
2017-06-17T13:38:17.190Z,50.30
2017-06-17T13:40:44.881Z,50.50
2017-06-17T13:43:12.428Z,50.10
2017-06-17T13:45:39.919Z,49.40
2017-06-17T13:48:07.444Z,48.70
2017-06-17T13:50:34.927Z,48.00
2017-06-17T13:53:03.184Z,48.00
2017-06-17T13:55:30.672Z,48.00
2017-06-17T13:57:58.200Z,47.60
2017-06-17T14:00:25.932Z,49.30
2017-06-17T14:02:54.211Z,50.30
2017-06-17T14:05:21.692Z,50.30
2017-06-17T14:07:49.192Z,52.10
2017-06-17T14:10:17.495Z,53.70
2017-06-17T14:12:44.980Z,53.70
2017-06-17T14:15:12.497Z,53.40
2017-06-17T14:17:40.000Z,54.30
2017-06-17T14:20:07.497Z,53.90
2017-06-17T14:22:35.088Z,54.90
2017-06-17T14:25:02.632Z,55.10
2017-06-17T14:27:30.120Z,55.30
2017-06-17T14:29:57.760Z,55.10
2017-06-17T14:32:25.288Z,54.70
2017-06-17T14:34:52.813Z,54.60
2017-06-17T14:37:20.344Z,54.50
2017-06-17T14:39:47.854Z,54.70
2017-06-17T14:42:15.436Z,55.30
2017-06-17T14:44:42.939Z,55.40
2017-06-17T14:47:10.424Z,55.20
2017-06-17T14:49:38.800Z,54.70
2017-06-17T14:52:06.296Z,54.60
2017-06-17T14:54:33.783Z,54.70
2017-06-17T14:57:01.399Z,54.70
2017-06-17T14:59:28.904Z,54.80
2017-06-17T15:01:56.392Z,55.70
2017-06-17T15:04:24.012Z,54.30
2017-06-17T15:06:51.497Z,54.30
2017-06-17T15:09:19.077Z,54.80
2017-06-17T15:11:46.960Z,53.20
2017-06-17T15:14:14.486Z,53.30
2017-06-17T15:16:42.118Z,53.20
2017-06-17T15:19:09.636Z,54.00
2017-06-17T15:21:37.922Z,54.90
2017-06-17T15:24:05.437Z,54.90
2017-06-17T15:26:33.724Z,55.80
2017-06-17T15:29:01.209Z,55.70
2017-06-17T15:31:28.901Z,56.70
2017-06-17T15:33:56.457Z,57.70
2017-06-17T15:36:23.995Z,57.70
2017-06-17T15:38:51.736Z,58.00
2017-06-17T15:41:19.216Z,58.00
2017-06-17T15:43:46.724Z,57.70
2017-06-17T15:46:14.504Z,57.50
2017-06-17T15:48:42.004Z,57.60
2017-06-17T15:51:09.608Z,58.50
2017-06-17T15:53:37.218Z,57.90
2017-06-17T15:56:04.748Z,57.00
2017-06-17T15:58:32.295Z,56.40
2017-06-17T16:00:59.900Z,56.00
2017-06-17T16:03:27.442Z,55.50
2017-06-17T16:05:54.932Z,55.80
2017-06-17T16:08:22.477Z,56.60
2017-06-17T16:10:50.064Z,56.20
2017-06-17T16:13:17.600Z,56.80
2017-06-17T16:15:45.135Z,56.80
2017-06-17T16:18:12.613Z,57.30
2017-06-17T16:20:40.112Z,57.80
2017-06-17T16:23:07.657Z,58.40
2017-06-17T16:25:35.201Z,58.40
2017-06-17T16:28:02.680Z,57.80
2017-06-17T16:30:30.327Z,57.40
2017-06-17T16:32:57.828Z,57.80
2017-06-17T16:35:25.305Z,57.90
2017-06-17T16:37:53.016Z,58.00
2017-06-17T16:40:20.501Z,58.40
2017-06-17T16:42:48.004Z,59.30
2017-06-17T16:45:15.548Z,58.60
2017-06-17T16:47:43.097Z,58.70
2017-06-17T16:50:10.836Z,58.40
2017-06-17T16:52:38.380Z,58.80
2017-06-17T16:55:05.954Z,58.10
2017-06-17T16:57:34.460Z,59.10
2017-06-17T17:00:01.940Z,58.80
2017-06-17T17:02:29.476Z,59.00
2017-06-17T17:04:57.228Z,59.00
2017-06-17T17:07:24.710Z,59.40
2017-06-17T17:09:52.196Z,58.90
2017-06-17T17:12:19.729Z,58.70
2017-06-17T17:14:47.208Z,58.80
2017-06-17T17:17:14.704Z,58.50
2017-06-17T17:19:42.257Z,58.90
2017-06-17T17:22:09.791Z,58.60
2017-06-17T17:24:37.304Z,58.70
2017-06-17T17:27:04.879Z,58.20
2017-06-17T17:29:32.424Z,58.80
2017-06-17T17:31:59.968Z,59.00
2017-06-17T17:34:27.448Z,59.10
2017-06-17T17:36:54.934Z,59.20
2017-06-17T17:39:23.212Z,59.30
2017-06-17T17:41:50.757Z,59.20
2017-06-17T17:44:18.258Z,59.10
2017-06-17T17:46:45.824Z,59.10
2017-06-17T17:49:13.472Z,59.10
2017-06-17T17:51:41.720Z,59.40
2017-06-17T17:54:10.017Z,59.40
2017-06-17T17:56:38.296Z,60.00
2017-06-17T17:59:06.052Z,59.80
2017-06-17T18:01:33.542Z,59.90
2017-06-17T18:04:01.801Z,61.00
2017-06-17T18:06:29.309Z,60.90
2017-06-17T18:08:56.792Z,61.60
2017-06-17T18:11:24.381Z,61.00
2017-06-17T18:13:51.919Z,60.80
2017-06-17T18:16:19.395Z,60.60
2017-06-17T18:18:46.897Z,60.50
2017-06-17T18:21:14.542Z,60.70
2017-06-17T18:23:42.020Z,61.00
2017-06-17T18:26:09.545Z,61.10
2017-06-17T18:28:37.071Z,61.60
2017-06-17T18:31:04.552Z,61.10
2017-06-17T18:33:32.073Z,61.70
2017-06-17T18:35:59.552Z,62.30
2017-06-17T18:38:27.044Z,61.80
2017-06-17T18:40:54.593Z,61.50
2017-06-17T18:43:22.085Z,62.00
2017-06-17T18:45:49.677Z,62.10
2017-06-17T18:48:17.200Z,62.30
2017-06-17T18:50:45.481Z,62.50
2017-06-17T18:53:13.024Z,62.50
2017-06-17T18:55:40.668Z,62.30
2017-06-17T18:58:08.169Z,63.20
2017-06-17T19:00:35.768Z,62.50
2017-06-17T19:03:03.291Z,63.30
2017-06-17T19:05:30.788Z,63.30
2017-06-17T19:07:58.488Z,63.30
2017-06-17T19:10:26.008Z,63.30
2017-06-17T19:12:53.557Z,64.00
2017-06-17T19:15:21.101Z,63.50
2017-06-17T19:17:48.648Z,63.20
2017-06-17T19:20:16.187Z,63.20
2017-06-17T19:22:43.711Z,63.70
2017-06-17T19:25:11.961Z,63.70
2017-06-17T19:27:40.221Z,64.10
2017-06-17T19:30:08.509Z,63.90
2017-06-17T19:32:35.988Z,63.90
2017-06-17T19:35:03.477Z,64.10
2017-06-17T19:37:31.853Z,63.90
2017-06-17T19:39:59.335Z,63.80
2017-06-17T19:42:26.812Z,63.50
2017-06-17T19:44:55.091Z,64.40
2017-06-17T19:47:22.594Z,64.20
2017-06-17T19:49:50.189Z,64.50
2017-06-17T19:52:17.728Z,64.30
2017-06-17T19:54:45.215Z,64.70
2017-06-17T19:57:12.712Z,64.60
2017-06-17T19:59:40.262Z,64.50
2017-06-17T20:02:07.760Z,64.80
2017-06-17T20:04:35.348Z,65.40
2017-06-17T20:07:02.884Z,65.20
2017-06-17T20:09:30.433Z,64.60
2017-06-17T20:11:57.980Z,65.00
2017-06-17T20:14:25.460Z,64.50
2017-06-17T20:16:53.165Z,65.40
2017-06-17T20:19:20.645Z,64.60
2017-06-17T20:21:53.997Z,65.90
2017-06-17T20:24:27.136Z,66.10
2017-06-17T20:26:55.420Z,66.20
2017-06-17T20:29:22.944Z,66.10
2017-06-17T20:31:51.194Z,66.30
2017-06-17T20:34:19.488Z,66.70
2017-06-17T20:36:46.976Z,66.60
2017-06-17T20:39:14.672Z,66.90
2017-06-17T20:41:42.247Z,67.20
2017-06-17T20:44:09.765Z,67.20
2017-06-17T20:46:37.307Z,66.80
2017-06-17T20:49:04.789Z,66.70
2017-06-17T20:51:32.264Z,67.30
2017-06-17T20:54:00.551Z,68.10
2017-06-17T20:56:28.036Z,68.00
2017-06-17T20:58:55.561Z,68.30
2017-06-17T21:01:23.172Z,68.60
2017-06-17T21:03:50.720Z,68.90
2017-06-17T21:06:18.225Z,69.30
2017-06-17T21:08:45.817Z,69.50
2017-06-17T21:11:13.386Z,69.50
2017-06-17T21:13:40.876Z,69.20
2017-06-17T21:16:09.360Z,69.90
2017-06-17T21:18:36.839Z,69.90
2017-06-17T21:21:04.349Z,70.00
2017-06-17T21:23:32.101Z,70.30
2017-06-17T21:25:59.649Z,70.80
2017-06-17T21:28:27.276Z,71.20
2017-06-17T21:30:54.769Z,71.30
2017-06-17T21:33:22.269Z,71.40
2017-06-17T21:35:49.748Z,71.60
2017-06-17T21:38:17.264Z,72.10
2017-06-17T21:40:44.775Z,72.80
2017-06-17T21:43:13.040Z,73.20
2017-06-17T21:45:41.316Z,73.40
2017-06-17T21:48:08.859Z,73.30
2017-06-17T21:50:36.605Z,73.50
2017-06-17T21:53:04.088Z,73.80
2017-06-17T21:55:31.592Z,74.60
2017-06-17T21:57:59.081Z,74.80
2017-06-17T22:00:26.572Z,75.00
2017-06-17T22:02:54.119Z,75.10
2017-06-17T22:05:21.996Z,75.70
2017-06-17T22:07:49.521Z,75.40
2017-06-17T22:10:17.265Z,75.50
2017-06-17T22:12:44.817Z,76.00
2017-06-17T22:15:12.350Z,76.10
2017-06-17T22:17:39.996Z,76.20
2017-06-17T22:20:07.544Z,76.40
2017-06-17T22:22:35.080Z,76.70
2017-06-17T22:25:02.629Z,76.90
2017-06-17T22:27:30.164Z,77.00
2017-06-17T22:29:57.713Z,77.20
2017-06-17T22:32:25.202Z,77.60
2017-06-17T22:34:52.693Z,77.80
2017-06-17T22:37:20.213Z,77.90
2017-06-17T22:39:48.472Z,78.50
2017-06-17T22:42:16.765Z,78.50
2017-06-17T22:44:44.300Z,78.40
2017-06-17T22:47:11.852Z,78.60
2017-06-17T22:49:39.391Z,78.90
2017-06-17T22:52:06.880Z,78.80
2017-06-17T22:54:34.377Z,79.20
2017-06-17T22:57:02.120Z,79.40
2017-06-17T22:59:29.672Z,79.20
2017-06-17T23:01:57.160Z,78.80
2017-06-17T23:04:24.648Z,78.90
2017-06-17T23:06:52.196Z,79.10
2017-06-17T23:09:19.748Z,79.50
2017-06-17T23:11:47.728Z,79.70
2017-06-17T23:14:15.274Z,79.60
2017-06-17T23:16:42.880Z,79.90
2017-06-17T23:19:10.533Z,79.70
2017-06-17T23:21:38.076Z,79.80
2017-06-17T23:24:05.577Z,80.00
2017-06-17T23:26:33.059Z,80.00
2017-06-17T23:29:00.799Z,80.10
2017-06-17T23:31:28.284Z,80.40
2017-06-17T23:33:55.772Z,80.50
2017-06-17T23:36:24.148Z,80.50
2017-06-17T23:38:51.639Z,80.50
2017-06-17T23:41:19.143Z,80.20
2017-06-17T23:43:46.672Z,80.40
2017-06-17T23:46:14.178Z,80.70
2017-06-17T23:48:41.764Z,80.70
2017-06-17T23:51:09.304Z,81.00
2017-06-17T23:53:36.852Z,80.80
2017-06-17T23:56:04.340Z,81.20
2017-06-17T23:58:31.941Z,81.20
